Time;durP1;ratioP1;P1;durP2;ratioP2;P2;SDS_P1;SDS_P2;PMS_P1;PMS_P2;Temp;Humidity;BMP_temperature;BMP_pressure;BME280_temperature;BME280_humidity;BME280_pressure;Samples;Min_cycle;Max_cycle;Signal;HPM_P1;HPM_P2
2021/12/27 00:02:06;;;;;;;23.80;12.20;;;;;;;;;;5074216;28;20033;-77
2021/12/27 00:04:32;;;;;;;22.77;10.93;;;;;;;;;;5072819;28;20048;-78
2021/12/27 00:06:58;;;;;;;26.05;11.80;;;;;;;;;;5072612;28;20044;-78
2021/12/27 00:09:25;;;;;;;27.23;13.27;;;;;;;;;;5072926;28;20127;-78
2021/12/27 00:11:51;;;;;;;25.27;12.52;;;;;;;;;;5072864;28;20271;-78
2021/12/27 00:14:17;;;;;;;23.15;12.10;;;;;;;;;;5056068;28;20052;-80
2021/12/27 00:16:43;;;;;;;26.77;12.65;;;;;;;;;;5055705;28;20098;-78
2021/12/27 00:19:10;;;;;;;16.50;7.38;;;;;;;;;;5056056;28;20483;-80
2021/12/27 00:21:36;;;;;;;27.08;12.45;;;;;;;;;;5054903;28;20040;-78
2021/12/27 00:24:02;;;;;;;24.92;13.02;;;;;;;;;;5071608;28;20036;-78
2021/12/27 00:26:28;;;;;;;25.33;11.90;;;;;;;;;;5055408;28;20041;-80
2021/12/27 00:28:54;;;;;;;25.05;11.82;;;;;;;;;;5056192;28;20419;-78
2021/12/27 00:31:20;;;;;;;26.63;11.65;;;;;;;;;;5072447;28;20041;-77
2021/12/27 00:33:47;;;;;;;25.08;12.40;;;;;;;;;;5072300;28;20040;-76
2021/12/27 00:36:13;;;;;;;27.88;13.50;;;;;;;;;;5072660;28;20459;-81
2021/12/27 00:38:39;;;;;;;25.02;12.50;;;;;;;;;;5072910;28;20037;-77
2021/12/27 00:41:05;;;;;;;21.67;10.27;;;;;;;;;;5073429;28;20442;-77
2021/12/27 00:43:31;;;;;;;24.90;11.27;;;;;;;;;;5071344;28;20040;-81
2021/12/27 00:45:57;;;;;;;24.88;12.10;;;;;;;;;;5072956;28;20479;-80
2021/12/27 00:48:24;;;;;;;25.38;12.02;;;;;;;;;;5054971;28;20044;-81
2021/12/27 00:50:50;;;;;;;27.80;12.85;;;;;;;;;;5054905;28;20518;-81
2021/12/27 00:53:16;;;;;;;23.85;11.10;;;;;;;;;;5054867;28;20052;-80
2021/12/27 00:55:42;;;;;;;21.65;10.40;;;;;;;;;;5072133;28;20622;-77
2021/12/27 00:58:09;;;;;;;21.05;10.18;;;;;;;;;;5071969;28;20041;-77
2021/12/27 01:00:35;;;;;;;25.45;13.07;;;;;;;;;;5054620;28;20040;-80
2021/12/27 01:03:01;;;;;;;24.67;12.57;;;;;;;;;;5072889;28;20047;-78
2021/12/27 01:05:27;;;;;;;25.20;11.93;;;;;;;;;;5071119;28;20044;-80
2021/12/27 01:07:53;;;;;;;20.33;9.07;;;;;;;;;;5053349;28;20053;-77
2021/12/27 01:18:06;;;;;;;24.67;12.38;;;;;;;;;;5069925;28;20045;-77
2021/12/27 01:20:32;;;;;;;23.75;12.45;;;;;;;;;;5069633;28;20049;-78
2021/12/27 01:22:59;;;;;;;26.75;13.65;;;;;;;;;;5070461;28;20040;-78
2021/12/27 01:25:25;;;;;;;28.70;13.15;;;;;;;;;;5069625;28;20048;-81
2021/12/27 01:27:52;;;;;;;27.90;13.63;;;;;;;;;;5071032;28;20459;-80
2021/12/27 01:30:19;;;;;;;27.95;13.38;;;;;;;;;;5052850;28;20446;-80
2021/12/27 01:32:50;;;;;;;26.33;12.57;;;;;;;;;;5053139;28;20044;-81
2021/12/27 01:35:16;;;;;;;23.98;11.73;;;;;;;;;;5053722;28;20519;-80
2021/12/27 01:37:43;;;;;;;28.35;13.20;;;;;;;;;;5053012;28;20511;-77
2021/12/27 01:40:10;;;;;;;20.60;9.93;;;;;;;;;;5069807;28;20087;-80
2021/12/27 01:42:37;;;;;;;29.02;13.27;;;;;;;;;;5069523;28;20101;-77
2021/12/27 01:45:04;;;;;;;26.48;13.38;;;;;;;;;;5069742;28;20473;-80
2021/12/27 01:47:31;;;;;;;25.65;12.88;;;;;;;;;;5070585;28;20043;-80
2021/12/27 01:49:58;;;;;;;26.77;13.30;;;;;;;;;;5069720;28;20048;-80
2021/12/27 01:52:24;;;;;;;29.65;13.25;;;;;;;;;;5069392;28;20122;-80
2021/12/27 01:54:53;;;;;;;26.85;13.38;;;;;;;;;;5069698;28;20055;-80
2021/12/27 01:57:19;;;;;;;23.10;10.05;;;;;;;;;;5069766;28;20422;-80
2021/12/27 01:59:45;;;;;;;27.15;13.13;;;;;;;;;;5052496;28;20392;-77
2021/12/27 02:02:12;;;;;;;28.67;14.00;;;;;;;;;;5069118;28;20051;-80
2021/12/27 02:04:38;;;;;;;30.23;13.88;;;;;;;;;;5069128;28;20040;-79
2021/12/27 02:07:04;;;;;;;28.95;12.82;;;;;;;;;;5030020;28;1132696;-77
2021/12/27 02:09:42;;;;;;;29.92;14.65;;;;;;;;;;5069623;28;20135;-78
2021/12/27 02:12:09;;;;;;;28.55;14.32;;;;;;;;;;5055087;28;20127;-79
2021/12/27 02:14:35;;;;;;;28.63;13.60;;;;;;;;;;5052723;28;20048;-77
2021/12/27 02:17:01;;;;;;;26.23;13.05;;;;;;;;;;5070333;28;20396;-78
2021/12/27 02:19:27;;;;;;;25.40;11.68;;;;;;;;;;5069439;28;20082;-77
2021/12/27 02:21:53;;;;;;;29.50;13.32;;;;;;;;;;5053329;28;20040;-81
2021/12/27 02:24:19;;;;;;;26.58;12.70;;;;;;;;;;5053533;28;20040;-77
2021/12/27 02:26:45;;;;;;;23.15;10.25;;;;;;;;;;5053245;28;20071;-77
2021/12/27 02:29:11;;;;;;;22.08;10.02;;;;;;;;;;5052949;28;20087;-76
2021/12/27 02:31:40;;;;;;;28.23;14.13;;;;;;;;;;5069484;28;20048;-77
2021/12/27 02:34:08;;;;;;;28.13;13.82;;;;;;;;;;5069689;28;20079;-79
2021/12/27 02:36:34;;;;;;;27.05;13.00;;;;;;;;;;5069679;28;20127;-80
2021/12/27 02:39:00;;;;;;;28.92;14.23;;;;;;;;;;5069555;28;20404;-79
2021/12/27 02:41:26;;;;;;;30.45;14.93;;;;;;;;;;5069273;28;20045;-79
2021/12/27 02:43:52;;;;;;;29.42;14.75;;;;;;;;;;5052855;28;20055;-79
2021/12/27 02:46:19;;;;;;;33.90;14.95;;;;;;;;;;5052863;28;20086;-79
2021/12/27 02:48:47;;;;;;;28.67;14.20;;;;;;;;;;5070705;28;20380;-78
2021/12/27 02:51:14;;;;;;;30.38;14.68;;;;;;;;;;5069762;28;20411;-78
2021/12/27 02:53:40;;;;;;;32.60;14.57;;;;;;;;;;5069366;28;20079;-77
2021/12/27 02:56:06;;;;;;;31.27;14.50;;;;;;;;;;5069597;28;20123;-77
2021/12/27 02:58:34;;;;;;;30.60;13.63;;;;;;;;;;5069816;28;20427;-77
2021/12/27 03:01:03;;;;;;;32.58;15.82;;;;;;;;;;5065649;28;20507;-79
2021/12/27 03:03:29;;;;;;;28.77;14.35;;;;;;;;;;5068873;28;20056;-79
2021/12/27 03:05:55;;;;;;;15.27;7.20;;;;;;;;;;5067816;28;20118;-80
2021/12/27 03:08:22;;;;;;;31.35;15.00;;;;;;;;;;5052385;28;20048;-79
2021/12/27 03:10:49;;;;;;;26.65;11.85;;;;;;;;;;5068889;28;20448;-77
2021/12/27 03:13:20;;;;;;;34.13;16.45;;;;;;;;;;5069015;28;20044;-79
2021/12/27 03:15:49;;;;;;;33.58;15.88;;;;;;;;;;5049335;28;20048;-78
2021/12/27 03:18:16;;;;;;;32.92;16.30;;;;;;;;;;5049261;28;20510;-79
2021/12/27 03:20:42;;;;;;;33.78;15.80;;;;;;;;;;5065145;28;20119;-80
2021/12/27 03:23:08;;;;;;;30.88;14.10;;;;;;;;;;5065591;28;20041;-77
2021/12/27 03:25:34;;;;;;;24.38;11.80;;;;;;;;;;5048129;28;20048;-79
2021/12/27 03:28:00;;;;;;;34.30;17.05;;;;;;;;;;5048677;28;20485;-78
2021/12/27 03:30:27;;;;;;;37.70;16.90;;;;;;;;;;5054567;28;20040;-78
2021/12/27 03:32:53;;;;;;;33.03;15.77;;;;;;;;;;5069954;28;20040;-78
2021/12/27 03:35:29;;;;;;;36.55;16.80;;;;;;;;;;5068650;28;20045;-77
2021/12/27 03:37:58;;;;;;;35.03;15.27;;;;;;;;;;5068980;28;20484;-79
2021/12/27 03:40:24;;;;;;;38.28;18.45;;;;;;;;;;5068539;28;20041;-79
2021/12/27 03:42:51;;;;;;;34.20;14.52;;;;;;;;;;5068180;28;20400;-79
2021/12/27 03:45:18;;;;;;;35.17;15.55;;;;;;;;;;5068282;28;20048;-80
2021/12/27 03:47:44;;;;;;;37.08;15.80;;;;;;;;;;5067704;28;20074;-79
2021/12/27 03:50:10;;;;;;;34.03;16.98;;;;;;;;;;5051746;28;20051;-77
2021/12/27 03:52:37;;;;;;;34.00;16.52;;;;;;;;;;5067615;28;20048;-77
2021/12/27 03:55:04;;;;;;;36.65;17.40;;;;;;;;;;5068314;28;20526;-79
2021/12/27 03:57:32;;;;;;;38.83;18.10;;;;;;;;;;5067810;28;20037;-79
2021/12/27 04:02:42;;;;;;;37.80;17.20;;;;;;;;;;5053381;28;20052;-78
2021/12/27 04:05:09;;;;;;;35.92;16.90;;;;;;;;;;5069267;28;20044;-77
2021/12/27 04:07:38;;;;;;;38.13;16.92;;;;;;;;;;5067726;28;20056;-79
2021/12/27 04:10:06;;;;;;;38.75;17.15;;;;;;;;;;5067714;28;20130;-80
2021/12/27 04:12:32;;;;;;;38.17;17.33;;;;;;;;;;5067732;28;20457;-79
2021/12/27 04:14:58;;;;;;;39.08;17.38;;;;;;;;;;5067518;28;20087;-79
2021/12/27 04:17:24;;;;;;;39.25;18.67;;;;;;;;;;5067269;28;20178;-79
2021/12/27 04:19:50;;;;;;;37.08;16.25;;;;;;;;;;5067421;28;20085;-77
2021/12/27 04:22:17;;;;;;;36.30;16.83;;;;;;;;;;5069165;28;20131;-75
2021/12/27 04:24:43;;;;;;;36.92;16.65;;;;;;;;;;5067710;28;20099;-77
2021/12/27 04:27:09;;;;;;;38.03;17.70;;;;;;;;;;5068499;28;20072;-77
2021/12/27 04:29:35;;;;;;;36.22;17.23;;;;;;;;;;5068072;28;20418;-78
2021/12/27 04:32:01;;;;;;;36.35;16.45;;;;;;;;;;5067908;28;20040;-79
2021/12/27 04:34:27;;;;;;;34.88;16.23;;;;;;;;;;5051250;28;20511;-79
2021/12/27 04:36:53;;;;;;;39.53;17.70;;;;;;;;;;5051569;28;20056;-79
2021/12/27 04:39:20;;;;;;;36.47;15.50;;;;;;;;;;5067688;28;20037;-78
2021/12/27 04:41:46;;;;;;;37.85;17.55;;;;;;;;;;5067812;28;20070;-77
2021/12/27 04:44:12;;;;;;;41.45;18.02;;;;;;;;;;5070771;28;20119;-77
2021/12/27 04:46:38;;;;;;;32.47;13.98;;;;;;;;;;5072310;28;20046;-79
2021/12/27 04:49:04;;;;;;;40.80;18.27;;;;;;;;;;5071266;28;20086;-78
2021/12/27 04:51:30;;;;;;;36.28;17.13;;;;;;;;;;5070959;28;20511;-79
2021/12/27 04:53:57;;;;;;;39.90;18.27;;;;;;;;;;5054838;28;20086;-79
2021/12/27 04:56:23;;;;;;;37.55;17.20;;;;;;;;;;5054881;28;20465;-78
2021/12/27 04:58:49;;;;;;;37.40;17.83;;;;;;;;;;5070791;28;20233;-77
2021/12/27 05:01:16;;;;;;;39.40;18.13;;;;;;;;;;5064901;28;20040;-79
2021/12/27 05:03:42;;;;;;;43.35;18.77;;;;;;;;;;5053502;28;20481;-78
2021/12/27 05:06:08;;;;;;;35.20;15.68;;;;;;;;;;5070176;28;20605;-76
2021/12/27 05:08:34;;;;;;;40.30;18.70;;;;;;;;;;5053677;28;20063;-77
2021/12/27 05:11:01;;;;;;;38.45;17.15;;;;;;;;;;5071001;28;20117;-79
2021/12/27 05:13:31;;;;;;;41.13;18.67;;;;;;;;;;5071101;28;20056;-77
2021/12/27 05:15:57;;;;;;;41.53;18.38;;;;;;;;;;5055118;28;20051;-79
2021/12/27 05:18:24;;;;;;;46.75;19.38;;;;;;;;;;5071120;28;20438;-79
2021/12/27 05:20:50;;;;;;;37.25;15.25;;;;;;;;;;5070216;28;20086;-79
2021/12/27 05:23:16;;;;;;;45.60;18.90;;;;;;;;;;5070489;28;20040;-79
2021/12/27 05:25:42;;;;;;;40.63;18.48;;;;;;;;;;5071692;28;20047;-79
2021/12/27 05:28:09;;;;;;;45.05;19.45;;;;;;;;;;5054300;28;20530;-79
2021/12/27 05:30:35;;;;;;;39.90;17.50;;;;;;;;;;5070324;28;20133;-79
2021/12/27 05:33:02;;;;;;;44.85;17.95;;;;;;;;;;5053838;28;20041;-79
2021/12/27 05:35:28;;;;;;;43.70;18.95;;;;;;;;;;5070088;28;20048;-79
2021/12/27 05:37:54;;;;;;;51.28;19.50;;;;;;;;;;5054216;28;20079;-78
2021/12/27 05:40:22;;;;;;;40.88;16.50;;;;;;;;;;5070432;28;20041;-78
2021/12/27 05:42:50;;;;;;;42.45;18.13;;;;;;;;;;5070151;28;20056;-79
2021/12/27 05:45:16;;;;;;;40.78;18.52;;;;;;;;;;5070572;28;20040;-79
2021/12/27 05:47:42;;;;;;;52.00;19.85;;;;;;;;;;5069930;28;20040;-79
2021/12/27 05:50:09;;;;;;;44.92;19.55;;;;;;;;;;5104108;28;20043;-79
2021/12/27 05:52:36;;;;;;;46.28;18.75;;;;;;;;;;5069535;28;20048;-79
2021/12/27 05:55:03;;;;;;;42.40;18.20;;;;;;;;;;5069332;28;20051;-79
2021/12/27 05:57:29;;;;;;;49.58;20.67;;;;;;;;;;5071090;28;20048;-78
2021/12/27 05:59:56;;;;;;;48.05;20.98;;;;;;;;;;5070557;28;20484;-79
2021/12/27 06:02:22;;;;;;;51.20;20.95;;;;;;;;;;5071040;28;20052;-78
2021/12/27 06:04:48;;;;;;;44.28;19.13;;;;;;;;;;5069883;28;20492;-79
2021/12/27 06:07:14;;;;;;;50.42;18.92;;;;;;;;;;5053389;28;20435;-76
2021/12/27 06:09:40;;;;;;;48.78;19.88;;;;;;;;;;5070186;28;20095;-78
2021/12/27 06:12:07;;;;;;;50.72;19.70;;;;;;;;;;5069809;28;20052;-78
2021/12/27 06:14:33;;;;;;;45.45;19.70;;;;;;;;;;5069316;28;20040;-80
2021/12/27 06:16:59;;;;;;;44.92;17.08;;;;;;;;;;5069870;28;20511;-77
2021/12/27 06:19:25;;;;;;;43.00;17.00;;;;;;;;;;5069660;28;20044;-77
2021/12/27 06:21:52;;;;;;;52.53;21.58;;;;;;;;;;5052891;28;20124;-78
2021/12/27 06:24:18;;;;;;;52.28;20.83;;;;;;;;;;5069917;28;20047;-78
2021/12/27 06:26:44;;;;;;;61.30;21.45;;;;;;;;;;5069104;28;20036;-79
2021/12/27 06:29:10;;;;;;;57.35;21.95;;;;;;;;;;5053282;28;20381;-79
2021/12/27 06:31:36;;;;;;;60.88;21.98;;;;;;;;;;5068792;28;20040;-79
2021/12/27 06:34:02;;;;;;;56.60;21.40;;;;;;;;;;5052827;28;20434;-79
2021/12/27 06:36:28;;;;;;;57.30;21.38;;;;;;;;;;5069285;28;20072;-79
2021/12/27 06:38:55;;;;;;;60.63;21.95;;;;;;;;;;5052844;28;20135;-79
2021/12/27 06:41:24;;;;;;;56.72;21.77;;;;;;;;;;5052295;28;20068;-77
2021/12/27 06:43:51;;;;;;;62.10;21.52;;;;;;;;;;5068752;28;20052;-77
2021/12/27 06:46:17;;;;;;;61.05;21.70;;;;;;;;;;5052205;28;20048;-79
2021/12/27 06:48:43;;;;;;;74.07;23.45;;;;;;;;;;5069990;28;20085;-77
2021/12/27 06:51:09;;;;;;;71.38;22.90;;;;;;;;;;5069170;28;20048;-76
2021/12/27 06:53:35;;;;;;;70.70;22.95;;;;;;;;;;5068626;28;20381;-77
2021/12/27 06:56:02;;;;;;;64.10;22.77;;;;;;;;;;5068507;28;20036;-79
2021/12/27 06:58:28;;;;;;;77.55;24.17;;;;;;;;;;5068904;28;20048;-79
2021/12/27 07:00:54;;;;;;;83.95;23.42;;;;;;;;;;5068599;28;20041;-79
2021/12/27 07:03:21;;;;;;;83.35;25.33;;;;;;;;;;5068563;28;20055;-79
2021/12/27 07:05:48;;;;;;;76.43;23.42;;;;;;;;;;5068324;28;20396;-78
2021/12/27 07:08:14;;;;;;;77.60;24.13;;;;;;;;;;5051856;28;20044;-79
2021/12/27 07:10:41;;;;;;;80.22;23.23;;;;;;;;;;5070347;28;20056;-78
2021/12/27 07:13:09;;;;;;;84.57;20.85;;;;;;;;;;5068667;28;20044;-78
2021/12/27 07:15:41;;;;;;;89.90;23.98;;;;;;;;;;5069148;28;20056;-77
2021/12/27 07:18:07;;;;;;;91.43;24.10;;;;;;;;;;5051713;28;20072;-78
2021/12/27 07:20:34;;;;;;;97.43;24.70;;;;;;;;;;5051786;28;20439;-79
2021/12/27 07:23:00;;;;;;;97.15;24.60;;;;;;;;;;5068495;28;20232;-77
2021/12/27 07:25:26;;;;;;;84.35;23.98;;;;;;;;;;5068340;28;20044;-76
2021/12/27 07:27:52;;;;;;;95.15;24.42;;;;;;;;;;5051336;28;20472;-77
2021/12/27 07:30:18;;;;;;;100.95;24.98;;;;;;;;;;5068397;28;20135;-77
2021/12/27 07:32:44;;;;;;;95.22;24.13;;;;;;;;;;5068135;28;20048;-79
2021/12/27 07:35:10;;;;;;;94.85;25.60;;;;;;;;;;5035269;28;20539;-79
2021/12/27 07:37:37;;;;;;;100.22;25.00;;;;;;;;;;5068085;28;20098;-79
2021/12/27 07:40:04;;;;;;;106.88;26.30;;;;;;;;;;5051670;28;20068;-79
2021/12/27 07:42:30;;;;;;;98.85;23.60;;;;;;;;;;5068383;28;20036;-77
2021/12/27 07:44:56;;;;;;;83.22;23.25;;;;;;;;;;5067860;28;20116;-77
2021/12/27 07:47:22;;;;;;;95.65;24.45;;;;;;;;;;5034886;28;20036;-79
2021/12/27 07:49:48;;;;;;;89.97;24.98;;;;;;;;;;5068021;28;20047;-79
2021/12/27 07:52:14;;;;;;;89.50;24.73;;;;;;;;;;5068129;28;20037;-79
2021/12/27 07:54:40;;;;;;;104.35;26.30;;;;;;;;;;5051101;28;20044;-79
2021/12/27 07:57:06;;;;;;;85.35;22.45;;;;;;;;;;5051442;28;20052;-79
2021/12/27 07:59:33;;;;;;;99.63;25.27;;;;;;;;;;5067686;28;20393;-79
2021/12/27 08:01:59;;;;;;;106.35;25.60;;;;;;;;;;5051518;28;20052;-78
2021/12/27 08:04:25;;;;;;;101.72;24.27;;;;;;;;;;5068468;28;20498;-79
2021/12/27 08:06:52;;;;;;;90.95;23.55;;;;;;;;;;5050535;28;20047;-79
2021/12/27 08:09:18;;;;;;;87.68;24.33;;;;;;;;;;5067896;28;20056;-79
2021/12/27 08:11:44;;;;;;;71.65;20.15;;;;;;;;;;5067739;28;20518;-79
2021/12/27 08:14:10;;;;;;;88.68;25.15;;;;;;;;;;5068705;28;20040;-77
2021/12/27 08:16:36;;;;;;;87.10;23.40;;;;;;;;;;5050580;28;20045;-76
2021/12/27 08:19:03;;;;;;;77.72;22.65;;;;;;;;;;5070158;28;20088;-76
2021/12/27 08:21:31;;;;;;;82.95;25.08;;;;;;;;;;5071628;28;20041;-79
2021/12/27 08:23:57;;;;;;;70.93;21.88;;;;;;;;;;5071350;28;20054;-79
2021/12/27 08:26:23;;;;;;;71.68;21.88;;;;;;;;;;5072317;28;20036;-77
2021/12/27 08:28:50;;;;;;;69.30;21.55;;;;;;;;;;5071155;28;20047;-80
2021/12/27 08:31:17;;;;;;;69.50;21.42;;;;;;;;;;5071455;28;20527;-79
2021/12/27 08:33:43;;;;;;;70.47;22.10;;;;;;;;;;5054674;28;20106;-80
2021/12/27 08:36:09;;;;;;;68.97;20.75;;;;;;;;;;5071683;28;20066;-76
2021/12/27 08:38:35;;;;;;;80.88;22.73;;;;;;;;;;5071398;28;20084;-77
2021/12/27 08:41:01;;;;;;;74.50;22.48;;;;;;;;;;5071464;28;20072;-76
2021/12/27 08:43:28;;;;;;;82.30;21.83;;;;;;;;;;5054750;28;20056;-76
2021/12/27 08:45:56;;;;;;;75.60;20.77;;;;;;;;;;5054389;28;20119;-79
2021/12/27 08:48:22;;;;;;;95.70;23.17;;;;;;;;;;5072299;28;20043;-79
2021/12/27 08:50:48;;;;;;;78.32;20.80;;;;;;;;;;5071285;28;20044;-80
2021/12/27 08:53:15;;;;;;;79.57;21.30;;;;;;;;;;5071230;28;20044;-79
2021/12/27 08:55:41;;;;;;;90.82;22.25;;;;;;;;;;5070533;28;20044;-79
2021/12/27 08:58:07;;;;;;;88.57;23.42;;;;;;;;;;5070969;28;20056;-79
2021/12/27 09:00:33;;;;;;;94.72;23.77;;;;;;;;;;5054566;28;20178;-79
2021/12/27 09:03:00;;;;;;;81.40;23.38;;;;;;;;;;5070785;28;20044;-79
2021/12/27 09:05:26;;;;;;;104.45;23.23;;;;;;;;;;5071523;28;20036;-79
2021/12/27 09:07:53;;;;;;;95.53;22.08;;;;;;;;;;5070703;28;20531;-78
2021/12/27 09:10:19;;;;;;;114.57;24.25;;;;;;;;;;5071130;28;20048;-80
2021/12/27 09:12:45;;;;;;;110.90;22.70;;;;;;;;;;5071726;28;20400;-79
2021/12/27 09:15:14;;;;;;;107.03;23.67;;;;;;;;;;5054426;28;20551;-79
2021/12/27 09:17:40;;;;;;;109.30;23.08;;;;;;;;;;5070666;28;20048;-79
2021/12/27 09:20:06;;;;;;;117.47;22.95;;;;;;;;;;5070740;28;20079;-79
2021/12/27 09:22:32;;;;;;;141.25;25.27;;;;;;;;;;5070286;28;20040;-79
2021/12/27 09:24:58;;;;;;;119.78;24.88;;;;;;;;;;5053301;28;20040;-79
2021/12/27 09:27:24;;;;;;;131.27;25.30;;;;;;;;;;5054154;28;20044;-78
2021/12/27 09:29:51;;;;;;;129.63;25.13;;;;;;;;;;5070134;28;20414;-79
2021/12/27 09:32:17;;;;;;;125.00;25.13;;;;;;;;;;5071759;28;20086;-79
2021/12/27 09:34:44;;;;;;;135.90;25.85;;;;;;;;;;5070224;28;20087;-79
2021/12/27 09:37:10;;;;;;;140.55;24.80;;;;;;;;;;5053666;28;20047;-79
2021/12/27 09:39:36;;;;;;;129.60;25.02;;;;;;;;;;5069833;28;20040;-79
2021/12/27 09:42:03;;;;;;;126.80;24.75;;;;;;;;;;5070560;28;20040;-79
2021/12/27 09:44:29;;;;;;;124.50;25.35;;;;;;;;;;5070340;28;20040;-79
2021/12/27 09:46:56;;;;;;;146.35;25.10;;;;;;;;;;5070084;28;20449;-79
2021/12/27 09:49:22;;;;;;;128.30;25.30;;;;;;;;;;5070578;28;20041;-79
2021/12/27 09:51:48;;;;;;;147.95;26.48;;;;;;;;;;5070576;28;20047;-79
2021/12/27 09:54:14;;;;;;;143.98;25.70;;;;;;;;;;5070002;28;20033;-79
2021/12/27 09:56:41;;;;;;;131.65;25.17;;;;;;;;;;5053334;28;20032;-79
2021/12/27 09:59:08;;;;;;;137.23;25.10;;;;;;;;;;5053099;28;20129;-79
2021/12/27 10:01:34;;;;;;;135.73;25.38;;;;;;;;;;5070924;28;20055;-79
2021/12/27 10:04:01;;;;;;;127.22;24.52;;;;;;;;;;5071151;28;20508;-79
2021/12/27 10:06:28;;;;;;;119.35;24.38;;;;;;;;;;5071364;28;20125;-79
2021/12/27 10:08:55;;;;;;;109.30;23.95;;;;;;;;;;5069530;28;20045;-79
2021/12/27 10:11:27;;;;;;;118.85;25.27;;;;;;;;;;5069414;28;20377;-79
2021/12/27 10:13:58;;;;;;;132.23;24.88;;;;;;;;;;5052784;28;20048;-79
2021/12/27 10:16:24;;;;;;;91.93;23.45;;;;;;;;;;5069442;28;20052;-80
2021/12/27 10:18:57;;;;;;;92.47;24.38;;;;;;;;;;5070553;28;20045;-79
2021/12/27 10:21:24;;;;;;;81.05;21.70;;;;;;;;;;5069616;28;20040;-81
2021/12/27 10:24:00;;;;;;;89.28;25.52;;;;;;;;;;5070551;28;20059;-80
2021/12/27 10:26:26;;;;;;;78.75;22.38;;;;;;;;;;5069382;28;20047;-80
2021/12/27 10:29:05;;;;;;;77.80;22.08;;;;;;;;;;5052538;28;20040;-80
2021/12/27 10:31:49;;;;;;;78.15;24.85;;;;;;;;;;5069258;28;20044;-80
2021/12/27 10:34:15;;;;;;;75.55;23.60;;;;;;;;;;5069816;28;20601;-80
2021/12/27 10:37:17;;;;;;;76.53;20.75;;;;;;;;;;5052368;28;20056;-80
2021/12/27 10:39:49;;;;;;;86.90;22.42;;;;;;;;;;5030999;28;20040;-80
2021/12/27 10:42:20;;;;;;;81.80;21.13;;;;;;;;;;5061915;28;20053;-76
2021/12/27 10:44:48;;;;;;;90.65;20.67;;;;;;;;;;5068680;28;20040;-77
2021/12/27 10:47:25;;;;;;;97.95;23.48;;;;;;;;;;5068820;28;20114;-78
2021/12/27 10:49:51;;;;;;;88.18;23.70;;;;;;;;;;5068411;28;20040;-77
2021/12/27 10:52:17;;;;;;;93.55;23.55;;;;;;;;;;5069011;28;20076;-77
2021/12/27 10:54:43;;;;;;;91.93;22.88;;;;;;;;;;5068892;28;20056;-80
2021/12/27 10:57:09;;;;;;;83.47;22.80;;;;;;;;;;5068647;28;20170;-79
2021/12/27 10:59:36;;;;;;;84.93;22.83;;;;;;;;;;5068672;28;20033;-79
2021/12/27 11:02:13;;;;;;;87.10;25.05;;;;;;;;;;5052363;28;20397;-79
2021/12/27 11:04:39;;;;;;;76.82;21.67;;;;;;;;;;5068575;28;20049;-79
2021/12/27 11:07:06;;;;;;;89.07;23.77;;;;;;;;;;5068316;28;20086;-80
2021/12/27 11:09:34;;;;;;;83.10;23.67;;;;;;;;;;5068773;28;20053;-80
2021/12/27 11:12:01;;;;;;;102.13;25.70;;;;;;;;;;5068298;28;20051;-80
2021/12/27 11:14:27;;;;;;;89.80;21.25;;;;;;;;;;5051259;28;20086;-80
2021/12/27 11:16:53;;;;;;;106.32;25.30;;;;;;;;;;5067628;28;20045;-80
2021/12/27 11:19:20;;;;;;;99.45;24.08;;;;;;;;;;5068615;28;20084;-80
2021/12/27 11:21:48;;;;;;;100.18;23.58;;;;;;;;;;5068639;28;20429;-80
2021/12/27 11:24:14;;;;;;;109.13;26.27;;;;;;;;;;5069947;28;20098;-79
2021/12/27 11:26:41;;;;;;;119.22;26.50;;;;;;;;;;5068182;28;20448;-80
2021/12/27 11:29:11;;;;;;;124.20;28.08;;;;;;;;;;5068269;28;20043;-80
2021/12/27 11:31:38;;;;;;;119.40;26.33;;;;;;;;;;5068063;28;20161;-77
2021/12/27 11:34:09;;;;;;;123.32;27.13;;;;;;;;;;5068970;28;20048;-80
2021/12/27 11:36:37;;;;;;;117.80;26.10;;;;;;;;;;5068154;28;20067;-78
2021/12/27 11:39:22;;;;;;;111.20;24.58;;;;;;;;;;5068459;28;20232;-77
2021/12/27 11:42:03;;;;;;;112.70;23.52;;;;;;;;;;5068187;28;20060;-78
2021/12/27 11:44:34;;;;;;;109.40;24.23;;;;;;;;;;5068617;28;20506;-78
2021/12/27 11:47:00;;;;;;;129.13;27.85;;;;;;;;;;5051467;28;20549;-78
2021/12/27 11:49:35;;;;;;;117.18;25.08;;;;;;;;;;5069977;28;20482;-77
2021/12/27 11:52:18;;;;;;;135.43;25.97;;;;;;;;;;5070377;28;20048;-78
2021/12/27 11:54:52;;;;;;;120.07;26.75;;;;;;;;;;5072166;28;20302;-79
2021/12/27 11:57:37;;;;;;;92.13;20.35;;;;;;;;;;5055225;28;20075;-78
2021/12/27 12:00:23;;;;;;;129.73;23.95;;;;;;;;;;5072239;28;20076;-78
2021/12/27 12:03:02;;;;;;;116.45;26.92;;;;;;;;;;5055200;28;20507;-78
2021/12/27 12:05:39;;;;;;;125.57;25.45;;;;;;;;;;5072244;28;20102;-78
2021/12/27 12:08:06;;;;;;;133.43;27.05;;;;;;;;;;5071993;28;20067;-78
2021/12/27 12:10:32;;;;;;;124.43;27.50;;;;;;;;;;5055576;28;20539;-78
2021/12/27 12:13:20;;;;;;;140.27;26.17;;;;;;;;;;5055167;28;20170;-78
2021/12/27 12:15:55;;;;;;;109.22;23.23;;;;;;;;;;5071873;28;20044;-77
2021/12/27 12:18:21;;;;;;;107.47;21.03;;;;;;;;;;5072149;28;20041;-77
2021/12/27 12:20:47;;;;;;;124.57;23.90;;;;;;;;;;5071782;28;20650;-78
2021/12/27 12:23:13;;;;;;;119.95;27.95;;;;;;;;;;5054843;28;20067;-80
2021/12/27 12:25:39;;;;;;;122.05;27.25;;;;;;;;;;5055234;28;20392;-80
2021/12/27 12:28:07;;;;;;;108.20;25.15;;;;;;;;;;5055274;28;20032;-79
2021/12/27 12:30:35;;;;;;;115.63;31.08;;;;;;;;;;5054953;28;20036;-79
2021/12/27 12:33:11;;;;;;;105.28;26.75;;;;;;;;;;5071594;28;20044;-80
2021/12/27 12:35:42;;;;;;;111.78;26.98;;;;;;;;;;5071148;28;20044;-78
2021/12/27 12:38:14;;;;;;;97.15;25.33;;;;;;;;;;5071602;28;20047;-77
2021/12/27 12:40:41;;;;;;;112.90;27.83;;;;;;;;;;5071158;28;20044;-78
2021/12/27 12:43:07;;;;;;;99.43;28.40;;;;;;;;;;5071563;28;20105;-78
2021/12/27 12:45:33;;;;;;;117.75;28.02;;;;;;;;;;5071698;28;20397;-78
2021/12/27 12:48:00;;;;;;;98.63;26.98;;;;;;;;;;5038041;28;20373;-78
2021/12/27 12:50:26;;;;;;;100.05;28.42;;;;;;;;;;5055075;28;20048;-78
2021/12/27 12:52:54;;;;;;;104.50;27.30;;;;;;;;;;5071362;28;20438;-78
2021/12/27 12:55:21;;;;;;;98.75;29.27;;;;;;;;;;5054855;28;20057;-78
2021/12/27 12:57:51;;;;;;;97.00;28.92;;;;;;;;;;5054314;28;20080;-78
2021/12/27 13:00:24;;;;;;;100.00;26.95;;;;;;;;;;5070828;28;20080;-78
2021/12/27 13:02:50;;;;;;;95.88;26.95;;;;;;;;;;5070904;28;20044;-78
2021/12/27 13:05:18;;;;;;;97.30;28.52;;;;;;;;;;5070850;28;20498;-78
2021/12/27 13:07:54;;;;;;;95.93;27.98;;;;;;;;;;5054063;28;20044;-78
2021/12/27 13:10:28;;;;;;;95.20;28.65;;;;;;;;;;5072516;28;20450;-78
2021/12/27 13:12:56;;;;;;;93.40;26.13;;;;;;;;;;5070400;28;20048;-78
2021/12/27 13:15:30;;;;;;;88.35;25.88;;;;;;;;;;5071911;28;20534;-78
2021/12/27 13:18:04;;;;;;;93.35;26.15;;;;;;;;;;5070526;28;20086;-78
2021/12/27 13:20:39;;;;;;;91.82;27.38;;;;;;;;;;5070707;28;20041;-78
2021/12/27 13:23:06;;;;;;;100.18;27.15;;;;;;;;;;5071098;28;20041;-78
2021/12/27 13:25:34;;;;;;;93.82;26.50;;;;;;;;;;5070762;28;20040;-78
2021/12/27 13:28:30;;;;;;;94.13;27.85;;;;;;;;;;5053839;28;20119;-79
2021/12/27 13:31:07;;;;;;;83.53;23.83;;;;;;;;;;5061732;28;20442;-79
2021/12/27 13:33:36;;;;;;;88.90;25.92;;;;;;;;;;5070972;28;20438;-80
2021/12/27 13:36:04;;;;;;;99.00;27.83;;;;;;;;;;5070484;28;20068;-79
2021/12/27 13:38:31;;;;;;;95.30;26.55;;;;;;;;;;5072101;28;20051;-79
2021/12/27 13:41:03;;;;;;;104.07;26.75;;;;;;;;;;5070293;28;20037;-79
2021/12/27 13:43:30;;;;;;;110.47;27.23;;;;;;;;;;5070311;28;20055;-79
2021/12/27 13:45:57;;;;;;;108.95;29.10;;;;;;;;;;5070158;28;20075;-79
2021/12/27 13:48:30;;;;;;;99.57;28.05;;;;;;;;;;5053250;28;20040;-79
2021/12/27 13:50:56;;;;;;;100.03;28.48;;;;;;;;;;5070252;28;20118;-78
2021/12/27 13:53:22;;;;;;;98.30;28.27;;;;;;;;;;5053567;28;20071;-78
2021/12/27 13:55:48;;;;;;;92.20;28.55;;;;;;;;;;5071277;28;20440;-79
2021/12/27 13:58:16;;;;;;;93.47;28.27;;;;;;;;;;5070326;28;20040;-78
2021/12/27 14:00:43;;;;;;;100.90;29.30;;;;;;;;;;5069498;28;20063;-78
2021/12/27 14:03:29;;;;;;;94.00;29.45;;;;;;;;;;5070014;28;20044;-77
2021/12/27 14:05:56;;;;;;;94.53;32.53;;;;;;;;;;5069950;28;20043;-77
2021/12/27 14:08:24;;;;;;;93.63;28.08;;;;;;;;;;5069766;28;20056;-80
2021/12/27 14:11:21;;;;;;;88.95;29.40;;;;;;;;;;5070162;28;20496;-79
2021/12/27 14:13:48;;;;;;;83.35;26.40;;;;;;;;;;5057453;28;20063;-78
2021/12/27 14:16:41;;;;;;;87.72;26.83;;;;;;;;;;5052362;28;20518;-77
2021/12/27 14:19:08;;;;;;;74.32;26.50;;;;;;;;;;5067897;28;20052;-77
2021/12/27 14:21:54;;;;;;;69.88;25.85;;;;;;;;;;5070212;28;20049;-78
2021/12/27 14:24:34;;;;;;;76.22;24.40;;;;;;;;;;5059290;28;20052;-78
2021/12/27 14:27:02;;;;;;;63.30;21.63;;;;;;;;;;5068991;28;20041;-79
2021/12/27 14:29:28;;;;;;;67.97;23.42;;;;;;;;;;5069521;28;20037;-79